DAM weather

Damascus International Airport
Damascus, Damascus Governorate, Syria

Public forecast

Using degrees Celsius for public forecast. Weather courtesy of forecast.io.

METAR (pilot weather report)

Retrieved 2019/03/26 04:00 UTC (30 minutes ago):

OSDI 260400Z 21012KT CAVOK 04/03 Q1010

TAF (pilot weather forecast)

Forecast is more than 12 hours old.

Retrieved 2019/03/24 00:45 UTC (2 days ago):

TAF TAF OSDI 242210Z 2500/2606 22010KT 9999 FEW030 SCT100 TEMPO 2500/2512 26015G25KT 5000 SHRA FEW025CB SCT030 BKN100